createdAt,value
2019-04-10T00:01:19.627Z,64.07
2019-04-10T00:03:48.327Z,64.30
2019-04-10T00:06:18.140Z,64.25
2019-04-10T00:08:46.994Z,64.50
2019-04-10T00:11:16.479Z,64.50
2019-04-10T00:13:44.980Z,64.66
2019-04-10T00:16:13.966Z,64.67
2019-04-10T00:18:42.658Z,64.52
2019-04-10T00:21:11.297Z,64.78
2019-04-10T00:23:40.022Z,64.98
2019-04-10T00:26:08.431Z,65.10
2019-04-10T00:28:37.090Z,65.10
2019-04-10T00:31:05.484Z,65.82
2019-04-10T00:33:34.629Z,65.82
2019-04-10T00:36:03.726Z,66.07
2019-04-10T00:38:32.383Z,66.17
2019-04-10T00:41:00.785Z,65.67
2019-04-10T00:43:29.182Z,65.67
2019-04-10T00:45:58.356Z,66.00
2019-04-10T00:48:26.748Z,65.74
2019-04-10T00:50:55.137Z,65.74
2019-04-10T00:53:23.620Z,65.80
2019-04-10T00:55:52.344Z,65.52
2019-04-10T00:58:21.040Z,66.00
2019-04-10T01:00:50.333Z,66.11
2019-04-10T01:03:35.896Z,66.11
2019-04-10T01:06:04.457Z,66.39
2019-04-10T01:08:32.941Z,65.70
2019-04-10T01:11:01.337Z,66.05
2019-04-10T01:13:29.721Z,66.05
2019-04-10T01:15:58.722Z,65.48
2019-04-10T01:18:27.077Z,65.48
2019-04-10T01:20:55.762Z,65.55
2019-04-10T01:23:24.643Z,65.58
2019-04-10T01:25:53.336Z,65.49
2019-04-10T01:28:22.725Z,64.88
2019-04-10T01:30:51.146Z,65.12
2019-04-10T01:33:20.514Z,65.12
2019-04-10T01:35:49.039Z,65.02
2019-04-10T01:38:17.613Z,65.02
2019-04-10T01:40:46.304Z,65.38
2019-04-10T01:43:18.303Z,65.38
2019-04-10T01:45:45.975Z,65.29
2019-04-10T01:48:15.389Z,65.31
2019-04-10T01:50:44.454Z,65.58
2019-04-10T01:53:13.418Z,65.43
2019-04-10T01:55:42.996Z,64.71
2019-04-10T01:58:16.936Z,64.71
2019-04-10T02:00:48.227Z,64.58
2019-04-10T02:03:16.843Z,64.60
2019-04-10T02:05:45.230Z,64.60
2019-04-10T02:08:16.073Z,64.46
2019-04-10T02:10:44.672Z,64.69
2019-04-10T02:13:12.987Z,64.43
2019-04-10T02:15:41.919Z,64.65
2019-04-10T02:18:10.961Z,64.55
2019-04-10T02:20:39.666Z,64.66
2019-04-10T02:23:08.072Z,64.66
2019-04-10T02:25:36.942Z,64.75
2019-04-10T02:28:05.559Z,65.13
2019-04-10T02:30:34.770Z,64.79
2019-04-10T02:33:04.753Z,65.00
2019-04-10T02:35:36.132Z,64.86
2019-04-10T02:38:21.176Z,64.86
2019-04-10T02:40:34.957Z,64.81
2019-04-10T02:43:05.437Z,64.53
2019-04-10T02:45:34.623Z,64.34
2019-04-10T02:48:04.039Z,64.71
2019-04-10T02:50:33.366Z,64.91
2019-04-10T02:53:03.285Z,64.98
2019-04-10T02:55:33.192Z,64.89
2019-04-10T02:58:02.576Z,65.10
2019-04-10T03:00:31.494Z,65.31
2019-04-10T03:03:01.299Z,64.85
2019-04-10T03:05:30.488Z,65.23
2019-04-10T03:08:00.292Z,65.13
2019-04-10T03:10:36.900Z,65.20
2019-04-10T03:13:00.572Z,65.07
2019-04-10T03:15:31.021Z,64.99
2019-04-10T03:18:00.770Z,65.39
2019-04-10T03:20:30.059Z,65.12
2019-04-10T03:22:58.815Z,65.09
2019-04-10T03:25:27.200Z,64.59
2019-04-10T03:27:55.884Z,65.00
2019-04-10T03:30:24.728Z,64.70
2019-04-10T03:33:05.985Z,64.73
2019-04-10T03:35:32.687Z,64.96
2019-04-10T03:38:01.624Z,64.85
2019-04-10T03:40:29.974Z,64.88
2019-04-10T03:42:58.379Z,64.57
2019-04-10T03:45:26.864Z,64.88
2019-04-10T03:47:55.800Z,64.96
2019-04-10T03:50:25.771Z,64.86
2019-04-10T03:52:54.195Z,65.09
2019-04-10T03:55:22.995Z,65.04
2019-04-10T03:57:51.985Z,65.14
2019-04-10T04:00:21.123Z,65.59
2019-04-10T04:02:49.831Z,65.53
2019-04-10T04:05:18.519Z,66.03
2019-04-10T04:07:46.932Z,66.40
2019-04-10T04:10:16.256Z,65.60
2019-04-10T04:12:44.693Z,65.65
2019-04-10T04:15:13.652Z,65.45
2019-04-10T04:17:42.295Z,65.48
2019-04-10T04:20:10.973Z,65.72
2019-04-10T04:22:39.376Z,65.90
2019-04-10T04:25:08.689Z,65.82
2019-04-10T04:27:37.783Z,65.67
2019-04-10T04:30:10.493Z,65.73
2019-04-10T04:32:39.777Z,65.79
2019-04-10T04:35:09.075Z,66.26
2019-04-10T04:37:37.947Z,66.34
2019-04-10T04:40:07.001Z,66.49
2019-04-10T04:42:35.387Z,66.73
2019-04-10T04:45:05.192Z,66.74
2019-04-10T04:47:33.747Z,66.77
2019-04-10T04:50:02.225Z,66.48
2019-04-10T04:52:30.607Z,66.02
2019-04-10T04:54:59.270Z,66.09
2019-04-10T04:57:28.759Z,65.70
2019-04-10T04:59:57.478Z,66.01
2019-04-10T05:02:26.207Z,65.87
2019-04-10T05:04:54.677Z,65.59
2019-04-10T05:07:23.245Z,65.26
2019-04-10T05:09:52.496Z,65.72
2019-04-10T05:12:20.994Z,65.52
2019-04-10T05:14:49.606Z,65.43
2019-04-10T05:17:18.454Z,65.34
2019-04-10T05:19:46.930Z,64.88
2019-04-10T05:22:15.299Z,64.00
2019-04-10T05:24:44.650Z,64.18
2019-04-10T05:27:14.115Z,63.88
2019-04-10T05:29:42.981Z,63.87
2019-04-10T05:32:11.508Z,63.92
2019-04-10T05:34:40.412Z,63.50
2019-04-10T05:37:09.393Z,63.80
2019-04-10T05:39:43.420Z,63.72
2019-04-10T05:42:08.481Z,63.68
2019-04-10T05:44:38.061Z,63.85
2019-04-10T05:47:07.558Z,64.02
2019-04-10T05:49:35.953Z,63.96
2019-04-10T05:52:04.409Z,64.16
2019-04-10T05:54:33.334Z,64.83
2019-04-10T05:57:01.821Z,64.67
2019-04-10T05:59:30.535Z,64.64
2019-04-10T06:01:59.039Z,64.64
2019-04-10T06:04:27.587Z,65.09
2019-04-10T06:06:56.873Z,64.03
2019-04-10T06:09:26.798Z,63.58
2019-04-10T06:11:55.415Z,64.23
2019-04-10T06:14:24.202Z,63.90
2019-04-10T06:16:53.073Z,64.05
2019-04-10T06:19:22.011Z,63.66
2019-04-10T06:21:50.543Z,63.58
2019-04-10T06:24:18.947Z,63.25
2019-04-10T06:26:47.925Z,63.05
2019-04-10T06:29:17.119Z,62.61
2019-04-10T06:31:45.698Z,61.86
2019-04-10T06:34:16.157Z,62.13
2019-04-10T06:36:45.607Z,61.43
2019-04-10T06:39:14.290Z,61.98
2019-04-10T06:41:43.185Z,61.52
2019-04-10T06:44:11.872Z,61.84
2019-04-10T06:46:41.531Z,61.71
2019-04-10T06:49:10.291Z,61.75
2019-04-10T06:51:38.690Z,62.07
2019-04-10T06:54:11.011Z,61.09
2019-04-10T06:56:37.567Z,61.09
2019-04-10T06:59:06.687Z,61.33
2019-04-10T07:01:46.834Z,61.14
2019-04-10T07:04:07.915Z,60.64
2019-04-10T07:06:51.621Z,60.47
2019-04-10T07:09:09.554Z,60.00
2019-04-10T07:11:38.607Z,60.17
2019-04-10T07:14:10.222Z,59.49
2019-04-10T07:16:37.362Z,59.72
2019-04-10T07:19:08.593Z,59.75
2019-04-10T07:21:37.111Z,59.52
2019-04-10T07:24:08.311Z,59.51
2019-04-10T07:26:41.399Z,59.15
2019-04-10T07:29:06.151Z,58.80
2019-04-10T07:31:36.438Z,59.19
2019-04-10T07:34:04.843Z,58.80
2019-04-10T07:36:33.473Z,59.06
2019-04-10T07:39:01.876Z,58.24
2019-04-10T07:41:31.500Z,57.53
2019-04-10T07:44:00.166Z,58.09
2019-04-10T07:46:28.553Z,57.32
2019-04-10T07:48:56.951Z,56.88
2019-04-10T07:51:25.677Z,56.60
2019-04-10T07:53:54.016Z,56.96
2019-04-10T07:56:22.709Z,56.54
2019-04-10T07:58:51.760Z,56.08
2019-04-10T08:01:20.455Z,55.22
2019-04-10T08:03:51.288Z,56.09
2019-04-10T08:06:19.954Z,55.40
2019-04-10T08:08:49.192Z,55.22
2019-04-10T08:11:18.050Z,54.27
2019-04-10T08:13:47.094Z,53.57
2019-04-10T08:16:15.522Z,53.57
2019-04-10T08:18:44.191Z,52.70
2019-04-10T08:21:13.486Z,52.48
2019-04-10T08:23:42.385Z,52.48
2019-04-10T08:26:10.849Z,52.10
2019-04-10T08:28:39.236Z,52.26
2019-04-10T08:31:08.653Z,51.54
2019-04-10T08:33:37.125Z,51.32
2019-04-10T08:36:05.602Z,51.32
2019-04-10T08:38:34.501Z,49.40
2019-04-10T08:41:02.976Z,49.67
2019-04-10T08:43:32.392Z,49.87
2019-04-10T08:46:02.037Z,48.57
2019-04-10T08:48:32.992Z,48.11
2019-04-10T08:51:01.448Z,47.78
2019-04-10T08:53:30.661Z,47.60
2019-04-10T08:55:59.354Z,47.69
2019-04-10T08:58:27.768Z,46.79
2019-04-10T09:00:56.585Z,47.12
2019-04-10T09:03:25.322Z,46.54
2019-04-10T09:05:55.163Z,47.09
2019-04-10T09:08:24.611Z,45.58
2019-04-10T09:10:54.457Z,46.28
2019-04-10T09:13:24.222Z,45.19
2019-04-10T09:15:54.031Z,45.76
2019-04-10T09:18:23.151Z,45.50
2019-04-10T09:20:51.540Z,44.05
2019-04-10T09:23:33.022Z,45.28
2019-04-10T09:25:51.278Z,45.12
2019-04-10T09:28:19.764Z,44.82
2019-04-10T09:30:49.055Z,44.89
2019-04-10T09:33:24.295Z,44.82
2019-04-10T09:35:48.843Z,44.73
2019-04-10T09:38:17.401Z,44.40
2019-04-10T09:40:46.751Z,44.26
2019-04-10T09:43:15.774Z,43.00
2019-04-10T09:45:44.211Z,42.42
2019-04-10T09:48:12.818Z,41.67
2019-04-10T09:50:41.825Z,41.11
2019-04-10T09:53:10.769Z,41.20
2019-04-10T09:55:40.292Z,40.34
2019-04-10T09:58:08.872Z,39.46
2019-04-10T10:00:38.160Z,39.95
2019-04-10T10:03:07.666Z,39.96
2019-04-10T10:05:36.942Z,39.68
2019-04-10T10:08:06.481Z,40.17
2019-04-10T10:10:37.227Z,40.45
2019-04-10T10:13:06.175Z,40.42
2019-04-10T10:15:35.598Z,40.54
2019-04-10T10:18:04.015Z,38.90
2019-04-10T10:20:32.413Z,39.02
2019-04-10T10:23:01.311Z,38.43
2019-04-10T10:25:30.982Z,36.43
2019-04-10T10:27:59.600Z,35.83
2019-04-10T10:30:27.977Z,36.56
2019-04-10T10:32:57.265Z,37.83
2019-04-10T10:35:25.753Z,37.47
2019-04-10T10:37:54.732Z,38.35
2019-04-10T10:40:23.537Z,35.04
2019-04-10T10:42:52.466Z,35.03
2019-04-10T10:45:22.775Z,32.49
2019-04-10T10:47:51.319Z,33.84
2019-04-10T10:50:21.300Z,35.08
2019-04-10T10:52:50.187Z,35.40
2019-04-10T10:55:18.606Z,34.62
2019-04-10T10:57:47.274Z,34.46
2019-04-10T11:00:17.301Z,33.73
2019-04-10T11:02:45.685Z,34.36
2019-04-10T11:05:14.137Z,35.40
2019-04-10T11:07:42.992Z,36.06
2019-04-10T11:10:12.606Z,34.98
2019-04-10T11:12:42.266Z,35.35
2019-04-10T11:15:12.320Z,35.53
2019-04-10T11:17:42.178Z,35.38
2019-04-10T11:20:12.743Z,36.69
2019-04-10T11:22:42.408Z,35.61
2019-04-10T11:25:12.102Z,35.24
2019-04-10T11:27:42.060Z,35.20
2019-04-10T11:30:12.515Z,36.68
2019-04-10T11:32:42.265Z,35.13
2019-04-10T11:35:11.249Z,35.23
2019-04-10T11:37:44.892Z,36.46
2019-04-10T11:40:12.483Z,35.11
2019-04-10T11:42:42.772Z,36.66
2019-04-10T11:45:16.177Z,36.10
2019-04-10T11:47:42.566Z,37.05
2019-04-10T11:50:15.395Z,38.45
2019-04-10T11:55:19.804Z,37.02
2019-04-10T11:57:46.980Z,37.39
2019-04-10T12:00:20.372Z,37.18
2019-04-10T12:02:50.377Z,36.51
2019-04-10T12:05:19.935Z,36.74
2019-04-10T12:08:10.977Z,36.45
2019-04-10T12:12:49.931Z,36.98
2019-04-10T12:15:20.456Z,37.15
2019-04-10T12:17:49.776Z,35.87
2019-04-10T12:20:18.763Z,36.53
2019-04-10T12:22:48.306Z,35.92
2019-04-10T12:25:16.664Z,36.58
2019-04-10T12:27:45.610Z,36.13
2019-04-10T12:30:15.174Z,37.26
2019-04-10T12:32:43.654Z,36.21
2019-04-10T12:35:13.692Z,36.08
2019-04-10T12:37:43.351Z,36.21
2019-04-10T12:40:12.378Z,37.79
2019-04-10T12:42:41.066Z,37.60
2019-04-10T12:45:09.887Z,36.81
2019-04-10T12:47:39.740Z,37.06
2019-04-10T12:50:08.587Z,36.90
2019-04-10T12:52:36.973Z,37.78
2019-04-10T12:55:08.860Z,37.69
2019-04-10T12:57:37.340Z,37.31
2019-04-10T13:00:09.717Z,36.64
2019-04-10T13:02:38.732Z,37.43
2019-04-10T13:05:07.687Z,38.01
2019-04-10T13:07:36.082Z,37.47
2019-04-10T13:10:08.610Z,37.93
2019-04-10T13:12:37.655Z,37.83
2019-04-10T13:15:08.026Z,37.74
2019-04-10T13:17:36.413Z,37.56
2019-04-10T13:20:10.385Z,38.36
2019-04-10T13:22:40.114Z,38.45
2019-04-10T13:25:08.821Z,37.71
2019-04-10T13:27:37.226Z,36.72
2019-04-10T13:30:12.573Z,37.20
2019-04-10T13:32:40.300Z,37.80
2019-04-10T13:35:10.332Z,38.11
2019-04-10T13:37:39.047Z,38.08
2019-04-10T13:40:07.893Z,36.75
2019-04-10T13:42:37.194Z,37.29
2019-04-10T13:45:07.644Z,36.99
2019-04-10T13:47:36.242Z,37.36
2019-04-10T13:50:06.690Z,36.48
2019-04-10T13:52:38.421Z,37.15
2019-04-10T13:55:08.854Z,37.34
2019-04-10T13:57:39.040Z,36.80
2019-04-10T14:00:09.649Z,37.05
2019-04-10T14:02:38.204Z,36.57
2019-04-10T14:05:14.294Z,36.35
2019-04-10T14:07:42.696Z,37.20
2019-04-10T14:10:12.545Z,37.01
2019-04-10T14:12:40.956Z,37.42
2019-04-10T14:15:09.897Z,37.87
2019-04-10T14:17:38.301Z,36.61
2019-04-10T14:20:07.075Z,37.31
2019-04-10T14:22:37.961Z,37.59
2019-04-10T14:25:09.504Z,38.72
2019-04-10T14:27:38.576Z,38.58
2019-04-10T14:30:09.933Z,36.92
2019-04-10T14:32:38.316Z,36.60
2019-04-10T14:35:09.642Z,35.97
2019-04-10T14:37:38.221Z,36.43
2019-04-10T14:40:09.319Z,36.56
2019-04-10T14:42:38.393Z,35.84
2019-04-10T14:45:07.485Z,36.58
2019-04-10T14:47:36.143Z,36.76
2019-04-10T14:50:05.389Z,36.94
2019-04-10T14:52:34.856Z,36.99
2019-04-10T14:55:04.030Z,37.18
2019-04-10T14:57:32.869Z,36.93
2019-04-10T15:00:01.556Z,35.86
2019-04-10T15:02:30.664Z,34.86
2019-04-10T15:04:59.522Z,34.81
2019-04-10T15:07:28.968Z,35.87
2019-04-10T15:09:57.468Z,36.66
2019-04-10T15:12:26.126Z,37.67
2019-04-10T15:14:54.753Z,37.02
2019-04-10T15:17:23.215Z,37.70
2019-04-10T15:19:52.565Z,37.67
2019-04-10T15:22:21.932Z,37.91
2019-04-10T15:24:50.350Z,37.72
2019-04-10T15:27:19.482Z,37.91
2019-04-10T15:29:49.017Z,37.20
2019-04-10T15:32:17.580Z,37.89
2019-04-10T15:34:46.272Z,37.95
2019-04-10T15:37:15.209Z,36.86
2019-04-10T15:39:44.758Z,37.07
2019-04-10T15:42:14.203Z,37.50
2019-04-10T15:44:42.962Z,38.29
2019-04-10T15:47:18.315Z,38.82
2019-04-10T15:49:41.536Z,38.97
2019-04-10T15:52:10.112Z,39.45
2019-04-10T15:54:38.484Z,39.06
2019-04-10T15:57:07.152Z,39.55
2019-04-10T15:59:36.569Z,39.36
2019-04-10T16:02:05.727Z,39.22
2019-04-10T16:04:34.146Z,39.04
2019-04-10T16:07:02.566Z,38.66
2019-04-10T16:09:38.828Z,38.39
2019-04-10T16:12:12.358Z,38.57
2019-04-10T16:14:40.748Z,38.62
2019-04-10T16:17:26.187Z,39.35
2019-04-10T16:20:07.908Z,39.56
2019-04-10T16:22:38.151Z,38.33
2019-04-10T16:25:09.572Z,38.72
2019-04-10T16:27:39.087Z,38.64
2019-04-10T16:30:10.281Z,38.62
2019-04-10T16:32:39.687Z,38.74
2019-04-10T16:35:09.342Z,39.26
2019-04-10T16:37:37.994Z,39.58
2019-04-10T16:40:10.036Z,39.58
2019-04-10T16:42:39.893Z,39.50
2019-04-10T16:45:10.095Z,39.29
2019-04-10T16:47:38.824Z,39.46
2019-04-10T16:50:08.808Z,39.75
2019-04-10T16:52:37.504Z,39.28
2019-04-10T16:55:10.393Z,39.46
2019-04-10T16:57:38.875Z,40.15
2019-04-10T17:00:08.207Z,39.69
2019-04-10T17:02:36.610Z,40.14
2019-04-10T17:05:08.203Z,40.53
2019-04-10T17:07:36.680Z,39.89
2019-04-10T17:10:14.073Z,39.91
2019-04-10T17:12:40.076Z,40.09
2019-04-10T17:15:10.311Z,40.35
2019-04-10T17:17:38.886Z,40.05
2019-04-10T17:20:08.549Z,40.32
2019-04-10T17:22:43.510Z,40.15
2019-04-10T17:25:07.940Z,40.30
2019-04-10T17:27:37.494Z,40.61
2019-04-10T17:30:08.024Z,41.01
2019-04-10T17:32:36.689Z,41.37
2019-04-10T17:35:09.507Z,41.17
2019-04-10T17:37:38.491Z,41.37
2019-04-10T17:40:24.194Z,41.67
2019-04-10T17:42:41.031Z,41.65
2019-04-10T17:45:10.150Z,41.54
2019-04-10T17:47:38.879Z,41.15
2019-04-10T17:50:09.357Z,41.55
2019-04-10T17:52:38.159Z,42.35
2019-04-10T17:55:09.375Z,42.03
2019-04-10T17:57:40.196Z,41.38
2019-04-10T18:00:16.867Z,42.12
2019-04-10T18:02:46.338Z,42.12
2019-04-10T18:05:15.020Z,42.49
2019-04-10T18:07:43.995Z,42.52
2019-04-10T18:10:13.982Z,42.60
2019-04-10T18:12:42.406Z,43.32
2019-04-10T18:15:11.522Z,43.32
2019-04-10T18:17:40.864Z,42.75
2019-04-10T18:20:10.513Z,43.56
2019-04-10T18:22:38.946Z,43.35
2019-04-10T18:25:08.196Z,43.35
2019-04-10T18:27:36.595Z,44.00
2019-04-10T18:30:07.817Z,44.00
2019-04-10T18:32:36.334Z,43.51
2019-04-10T18:35:06.785Z,43.29
2019-04-10T18:37:35.401Z,43.29
2019-04-10T18:40:05.364Z,43.61
2019-04-10T18:42:33.804Z,43.61
2019-04-10T18:45:02.204Z,43.83
2019-04-10T18:47:32.406Z,44.10
2019-04-10T18:50:01.216Z,44.10
2019-04-10T18:52:31.662Z,44.18
2019-04-10T18:55:00.490Z,44.53
2019-04-10T18:57:30.488Z,44.53
2019-04-10T19:00:06.648Z,44.79
2019-04-10T19:02:52.916Z,44.79
2019-04-10T19:05:23.555Z,44.60
2019-04-10T19:07:51.983Z,45.14
2019-04-10T19:10:20.404Z,45.37
2019-04-10T19:12:48.866Z,45.37
2019-04-10T19:15:17.254Z,45.38
2019-04-10T19:17:46.816Z,45.42
2019-04-10T19:20:15.774Z,45.42
2019-04-10T19:22:44.654Z,45.31
2019-04-10T19:25:14.497Z,45.35
2019-04-10T19:27:42.967Z,45.82
2019-04-10T19:30:17.157Z,45.86
2019-04-10T19:32:46.139Z,46.10
2019-04-10T19:35:15.597Z,46.10
2019-04-10T19:37:45.704Z,46.10
2019-04-10T19:40:15.923Z,45.47
2019-04-10T19:42:44.457Z,46.08
2019-04-10T19:45:13.328Z,45.45
2019-04-10T19:47:42.276Z,45.45
2019-04-10T19:50:11.166Z,45.48
2019-04-10T19:52:40.326Z,45.58
2019-04-10T19:55:08.971Z,45.91
2019-04-10T19:57:37.493Z,45.99
2019-04-10T20:00:10.219Z,45.66
2019-04-10T20:02:40.066Z,46.13
2019-04-10T20:05:09.472Z,45.88
2019-04-10T20:07:37.859Z,46.04
2019-04-10T20:10:06.687Z,46.26
2019-04-10T20:12:35.329Z,46.26
2019-04-10T20:15:06.448Z,46.12
2019-04-10T20:17:35.752Z,46.58
2019-04-10T20:20:06.987Z,46.41
2019-04-10T20:22:36.907Z,46.41
2019-04-10T20:25:06.263Z,46.34
2019-04-10T20:27:36.154Z,46.78
2019-04-10T20:30:07.816Z,46.79
2019-04-10T20:32:36.453Z,46.72
2019-04-10T20:35:06.101Z,46.69
2019-04-10T20:37:34.578Z,46.92
2019-04-10T20:40:03.549Z,46.92
2019-04-10T20:42:32.195Z,46.85
2019-04-10T20:45:00.956Z,46.85
2019-04-10T20:47:29.566Z,47.07
2019-04-10T20:49:57.969Z,47.04
2019-04-10T20:52:26.454Z,47.26
2019-04-10T20:54:55.233Z,47.42
2019-04-10T20:57:24.021Z,47.54
2019-04-10T20:59:53.780Z,47.29
2019-04-10T21:02:22.551Z,47.68
2019-04-10T21:05:00.532Z,47.46
2019-04-10T21:07:25.561Z,47.41
2019-04-10T21:09:54.515Z,47.72
2019-04-10T21:12:23.796Z,47.72
2019-04-10T21:14:52.624Z,47.37
2019-04-10T21:17:21.001Z,47.60
2019-04-10T21:19:49.484Z,47.59
2019-04-10T21:22:17.883Z,47.67
2019-04-10T21:24:46.273Z,47.84
2019-04-10T21:27:14.663Z,48.24
2019-04-10T21:29:47.370Z,48.26
2019-04-10T21:32:21.865Z,48.04
2019-04-10T21:34:51.162Z,48.46
2019-04-10T21:37:19.871Z,48.67
2019-04-10T21:39:48.419Z,48.31
2019-04-10T21:42:22.232Z,48.90
2019-04-10T21:44:47.053Z,48.77
2019-04-10T21:47:15.395Z,48.95
2019-04-10T21:49:44.217Z,49.04
2019-04-10T21:52:12.900Z,49.33
2019-04-10T21:54:49.661Z,49.34
2019-04-10T21:57:11.453Z,49.37
2019-04-10T21:59:39.829Z,49.73
2019-04-10T22:02:08.588Z,49.89
2019-04-10T22:04:37.281Z,49.92
2019-04-10T22:07:23.840Z,50.51
2019-04-10T22:10:10.576Z,50.49
2019-04-10T22:12:43.603Z,50.55
2019-04-10T22:15:11.398Z,50.65
2019-04-10T22:17:40.470Z,50.76
2019-04-10T22:20:09.627Z,50.78
2019-04-10T22:22:39.235Z,50.52
2019-04-10T22:25:07.777Z,50.93
2019-04-10T22:27:36.179Z,50.73
2019-04-10T22:30:08.342Z,50.81
2019-04-10T22:32:37.103Z,50.97
2019-04-10T22:35:07.224Z,51.05
2019-04-10T22:37:35.891Z,50.49
2019-04-10T22:40:06.585Z,50.90
2019-04-10T22:42:42.473Z,50.60
2019-04-10T22:45:27.513Z,50.69
2019-04-10T22:47:56.989Z,50.58
2019-04-10T22:50:27.348Z,50.80
2019-04-10T22:52:56.984Z,51.28
2019-04-10T22:55:26.018Z,51.23
2019-04-10T22:57:54.804Z,51.12
2019-04-10T23:00:32.414Z,51.08
2019-04-10T23:03:01.330Z,51.05
2019-04-10T23:05:30.393Z,51.32
2019-04-10T23:07:59.139Z,51.28
2019-04-10T23:10:28.755Z,51.18
2019-04-10T23:13:01.655Z,51.64
2019-04-10T23:15:27.680Z,51.94
2019-04-10T23:17:57.238Z,52.06
2019-04-10T23:20:25.982Z,51.93
2019-04-10T23:22:54.941Z,52.08
2019-04-10T23:25:24.683Z,52.39
2019-04-10T23:27:55.214Z,52.19
2019-04-10T23:30:24.512Z,52.02
2019-04-10T23:32:53.544Z,52.09
2019-04-10T23:35:22.194Z,52.68
2019-04-10T23:37:51.110Z,52.71
2019-04-10T23:40:20.923Z,52.87
2019-04-10T23:43:01.212Z,52.77
2019-04-10T23:45:19.864Z,52.83
2019-04-10T23:47:48.654Z,53.36
2019-04-10T23:50:18.439Z,53.18
2019-04-10T23:52:47.890Z,53.55
2019-04-10T23:55:17.692Z,53.88
2019-04-10T23:57:46.436Z,53.74
